Aeroporto :
LOGIN :

Iscrizione | Disclaimer

   EN    FR    IT 

 










Sommario :    VFR   VFR Marginale   IFR   IFR Intensivo   IFR Molto Intensivo
Visibilità : 
Base nubi : 
>= 8 km
>= 3000ft
5 / 8 km
1000 / 3000 ft
1500m / 5 km
500 / 1000 ft
800 / 1500m
200 / 500 ft
< 800m
< 200 ft
Simboli :   Temporali  Nebbia  Neve Forte  Precipitazioni Forti  Vento > 20 kt
SIGMETs :   Varie  Temporali  Ghiacco  Turbolenza  Onda orograficha  Ceneri Vulcaniche






- Altitudine del aeroporto : 10 ft
- Codice IATA : AAL


EKYT - Aalborg

ULTIMO METAR :
  • 011052Z AUTO 29018G29KT 9999 FEW017/// BKN021/// 09/05 Q1010

METARs OBSOLETI :
  • 011040Z AUTO 29019G30KT 9999 FEW017/// BKN021/// 09/05 Q1010
  • 011021Z 29019KT 9999 FEW016 BKN022 09/04 Q1010
  • 010950Z 28018KT 9999 FEW015 BKN018 08/04 Q1010
  • 010933Z AUTO 29018G29KT 9999 FEW015/// BKN018/// BKN021/// 08/04 Q1011
  • 010920Z 29020KT 9999 FEW017 08/04 Q1011
  • 010850Z 28017G27KT 9999 FEW017 08/04 Q1011
  • 010820Z 29018KT 9999 SCT016 BKN019 07/04 Q1011
  • 010750Z 28017KT 9999 SCT015 BKN018 07/04 Q1011

TAF TAF EKYT
Valido dal 01 a 09 ore il 02 a 09 ore UTC


010825Z 0109/0209 27015KT 9999 SCT020
TEMPO 0109/0116 28020G30KT 7000 -SHRA SCT020TCU
TEMPO 0116/0122 7000 -SHRA SCT008 BKN012TCU
TEMPO 0206/0209 26020G30KT



MetMap, La meteo Aeronautica in un colpo d'occhio ! - Copyright ORBIFLY Dicembre 2007 - Disclaimer

ORBIFLY MET'MAP TEAM :

Programmazione e sviluppo : Alexandra Zaïnal
Concezione : Baudouin d'Aumeries
Aiuto per la programmazione : Marc-Olivier Méhu
Supporto tecnico e logistico : Manuel Goepfert
Aiuto per la traduzione : Arnaldo La Scala

Contatto : metmap@orbifly.com




FONTI E CREDITI :

   NOAA